Grundy, VA

2:20 PM EDT on September 04, 2015 (GMT -0400)
KM4HDM - Richlands, Virginia | | Change Station
CLOSE
Current Station
Personal Weather Station
Location: Richlands, VA
Elevation: 1972 ft
Nearby Weather Stations

Elev 1972 ft 37.09 °N, 81.83 °W | Updated 2 minutes ago

Mostly Cloudy
Mostly Cloudy
86.9 °F
Feels Like 87 °F
N
1.7
Wind Variable Wind from SSE

Today
High -- | Low -- °F
--% Chance of Precip.
Yesterday
High -- | Low -- °F
Precip. -- in
7:01 AM 7:53 PM
Waning Gibbous, 57% visible
Pressure 30.16 in
Visibility 10.0 miles
Clouds Scattered Clouds 4300 ft
Scattered Clouds 6000 ft
Heat Index 87 °F
Dew Point 61 °F
Humidity 42%
Rainfall 0.00 in
Snow Depth Not available.
UV 8 out of 12
Pollen 8.80 out of 12
Air Quality Not available.
Flu Activity Not available.
METAR KJFZ 041815Z AUTO 36004KT 10SM SCT043 SCT060 28/M08 A3016 RMK AO2 LTG DSNT NE T02801078
Pressure 30.16 in
Visibility 10.0 miles
Clouds Scattered Clouds 4300 ft
Scattered Clouds 6000 ft
Heat Index 87 °F
Dew Point 61 °F
Humidity 42%
Rainfall 0.00 in
Snow Depth Not available.
UV 8 out of 12
Pollen 8.80 out of 12
Air Quality Not available.
Flu Activity Not available.
METAR KJFZ 041815Z AUTO 36004KT 10SM SCT043 SCT060 28/M08 A3016 RMK AO2 LTG DSNT NE T02801078

10-Day Weather Forecast

×

Almanac

Astronomy

Sep. 04, 2015 Rise Set
Actual Time
Civil Twilight
Nautical Twilight
Astronomical Twilight
Moon
Length of Visible Light
Length of Day
Tomorrow will be .
, % of the Moon is Illuminated

Today's Extremes

State Highs State Lows

Community

WunderPhotos

Upload Photos

1,852,251 photos uploaded!

WunderBlogs® & News

Nearby

Air Quality

  Air Quality AQ Index Pollutant
Not available.

Snow Depth

Station Depth Elevation

Earthquake Activity

City Distance Mag. Time & Date
Minimum magnitude displayed is 2.5.

Coastal Water Temperatures

Place Temperature

Stations

Nearby Weather Stations

Station Location Temp. Windchill Dew Point Humidity Wind Precip. Elev Updated Type